Time;durP1;ratioP1;P1;durP2;ratioP2;P2;SDS_P1;SDS_P2;PMS_P1;PMS_P2;Temp;Humidity;BMP_temperature;BMP_pressure;BME280_temperature;BME280_humidity;BME280_pressure;Samples;Min_cycle;Max_cycle;Signal;HPM_P1;HPM_P2
2021/12/06 00:00:29;;;;;;;47.55;22.63;;;3.50;99.90;;;;;;5156264;27;20046;-76
2021/12/06 00:02:57;;;;;;;45.78;23.75;;;3.50;99.90;;;;;;5155988;27;20479;-76
2021/12/06 00:05:25;;;;;;;48.20;23.20;;;3.40;99.90;;;;;;5156201;27;20073;-76
2021/12/06 00:07:52;;;;;;;47.63;23.73;;;3.50;99.90;;;;;;5138078;27;20471;-76
2021/12/06 00:10:17;;;;;;;46.92;23.45;;;3.50;99.90;;;;;;5155818;27;20054;-76
2021/12/06 00:12:43;;;;;;;45.00;23.40;;;3.50;99.90;;;;;;5156286;27;20053;-76
2021/12/06 00:15:11;;;;;;;45.08;23.85;;;3.50;99.90;;;;;;5155570;27;20391;-75
2021/12/06 00:17:37;;;;;;;48.35;24.70;;;3.40;99.90;;;;;;5156321;27;20440;-76
2021/12/06 00:20:07;;;;;;;50.75;25.73;;;3.40;99.90;;;;;;5156228;27;20061;-74
2021/12/06 00:22:33;;;;;;;52.53;25.08;;;3.40;99.90;;;;;;5156241;27;20126;-76
2021/12/06 00:24:59;;;;;;;50.42;24.90;;;3.40;99.90;;;;;;5155522;27;20042;-76
2021/12/06 00:27:26;;;;;;;53.55;24.55;;;3.40;99.90;;;;;;5155448;27;20664;-76
2021/12/06 00:29:53;;;;;;;53.35;24.48;;;3.30;99.90;;;;;;5156087;27;20407;-76
2021/12/06 00:32:19;;;;;;;53.63;26.50;;;3.30;99.90;;;;;;5155703;27;20043;-75
2021/12/06 00:34:45;;;;;;;57.60;27.33;;;3.30;99.90;;;;;;5155803;27;20046;-75
2021/12/06 00:37:34;;;;;;;56.70;27.65;;;3.30;99.90;;;;;;5154943;27;20475;-75
2021/12/06 00:40:06;;;;;;;58.33;27.52;;;3.30;99.90;;;;;;5156277;27;20046;-77
2021/12/06 00:42:33;;;;;;;60.22;26.30;;;3.30;99.90;;;;;;5155554;27;20074;-76
2021/12/06 00:45:01;;;;;;;63.88;29.33;;;3.30;99.90;;;;;;5155942;27;20488;-76
2021/12/06 00:47:27;;;;;;;61.45;27.27;;;3.30;99.90;;;;;;5155050;27;20050;-76
2021/12/06 00:49:53;;;;;;;56.55;26.30;;;3.40;99.90;;;;;;5155567;27;20047;-76
2021/12/06 00:52:19;;;;;;;59.83;27.42;;;3.40;99.90;;;;;;5154588;27;20557;-76
2021/12/06 00:54:46;;;;;;;59.38;27.58;;;3.40;99.90;;;;;;5155705;27;20138;-76
2021/12/06 00:57:13;;;;;;;66.53;28.40;;;3.30;99.90;;;;;;5136651;27;20039;-75
2021/12/06 00:59:40;;;;;;;59.58;28.75;;;3.30;99.90;;;;;;5155068;27;20045;-76
2021/12/06 01:02:07;;;;;;;64.32;30.30;;;3.30;99.90;;;;;;5155584;27;20100;-75
2021/12/06 01:04:37;;;;;;;66.43;28.73;;;3.20;99.90;;;;;;5154498;27;20047;-76
2021/12/06 01:07:05;;;;;;;59.08;27.40;;;3.30;99.90;;;;;;5154768;27;20099;-76
2021/12/06 01:09:31;;;;;;;67.47;29.45;;;3.30;99.90;;;;;;5154195;27;20030;-76
2021/12/06 01:11:57;;;;;;;59.63;28.92;;;3.30;99.90;;;;;;5155448;27;20089;-76
2021/12/06 01:14:24;;;;;;;60.70;28.52;;;3.20;99.90;;;;;;5154493;27;20037;-76
2021/12/06 01:16:52;;;;;;;61.88;28.80;;;3.20;99.90;;;;;;5154991;27;20081;-76
2021/12/06 01:19:18;;;;;;;65.18;29.25;;;3.20;99.90;;;;;;5154132;27;20042;-76
2021/12/06 01:21:51;;;;;;;65.57;28.60;;;3.20;99.90;;;;;;5155299;27;20402;-76
2021/12/06 01:24:20;;;;;;;62.55;27.48;;;3.10;99.90;;;;;;5154511;27;20070;-76
2021/12/06 01:40:08;;;;;;;69.32;29.20;;;3.10;99.90;;;;;;5134252;27;20043;-76
2021/12/06 01:42:34;;;;;;;75.57;31.13;;;3.10;99.90;;;;;;5133604;27;20119;-76
2021/12/06 01:45:00;;;;;;;68.82;30.30;;;3.10;99.90;;;;;;5135969;27;20500;-76
2021/12/06 01:47:32;;;;;;;83.30;33.42;;;3.10;99.90;;;;;;5154185;27;20050;-76
2021/12/06 01:50:01;;;;;;;82.70;32.42;;;3.10;99.90;;;;;;5153785;27;20126;-76
2021/12/06 01:52:32;;;;;;;81.93;34.03;;;3.10;99.90;;;;;;5154109;27;20103;-76
2021/12/06 01:54:59;;;;;;;77.97;31.67;;;3.10;99.90;;;;;;5154406;27;20043;-77
2021/12/06 01:57:27;;;;;;;83.70;31.95;;;3.10;99.90;;;;;;5153713;27;20402;-76
2021/12/06 01:59:53;;;;;;;86.13;30.90;;;3.10;99.90;;;;;;5154359;27;20047;-76
2021/12/06 02:02:22;;;;;;;80.43;31.60;;;3.10;99.90;;;;;;5135661;27;20047;-75
2021/12/06 02:04:48;;;;;;;86.10;30.40;;;3.10;99.90;;;;;;5135082;27;20047;-76
2021/12/06 02:07:21;;;;;;;87.47;31.80;;;3.10;99.90;;;;;;5136240;27;20065;-76
2021/12/06 02:09:49;;;;;;;95.38;32.72;;;3.10;99.90;;;;;;5154028;27;20043;-76
2021/12/06 02:12:16;;;;;;;90.57;31.30;;;3.00;99.90;;;;;;5154426;27;20042;-76
2021/12/06 02:14:56;;;;;;;93.57;32.03;;;3.10;99.90;;;;;;5153311;27;20039;-76
2021/12/06 02:17:28;;;;;;;87.85;32.25;;;3.10;99.90;;;;;;5153352;27;20123;-76
2021/12/06 02:20:05;;;;;;;86.22;31.52;;;3.10;99.90;;;;;;5153869;27;20125;-76
2021/12/06 02:22:34;;;;;;;86.93;32.95;;;3.10;99.90;;;;;;5153605;27;20047;-76
2021/12/06 02:25:04;;;;;;;90.07;33.92;;;3.10;99.90;;;;;;5154121;27;20038;-76
2021/12/06 02:27:30;;;;;;;90.40;32.53;;;3.10;99.90;;;;;;5135357;27;20038;-76
2021/12/06 02:29:59;;;;;;;91.32;35.30;;;3.10;99.90;;;;;;5153731;27;20380;-76
2021/12/06 02:32:26;;;;;;;91.40;32.92;;;3.10;99.90;;;;;;5153050;27;20082;-77
2021/12/06 02:34:54;;;;;;;84.35;32.65;;;3.10;99.90;;;;;;5153391;27;20034;-76
2021/12/06 02:37:29;;;;;;;88.40;32.00;;;3.10;99.90;;;;;;5153864;27;20471;-74
2021/12/06 02:39:55;;;;;;;90.65;34.13;;;3.10;99.90;;;;;;5153842;27;20464;-76
2021/12/06 02:42:22;;;;;;;101.35;36.40;;;3.00;99.90;;;;;;5153883;27;20111;-74
2021/12/06 02:44:49;;;;;;;92.90;33.97;;;3.00;99.90;;;;;;5135438;27;20073;-76
2021/12/06 02:47:16;;;;;;;103.15;34.40;;;3.10;99.90;;;;;;5135759;27;20055;-76
2021/12/06 02:49:43;;;;;;;94.35;33.63;;;3.10;99.90;;;;;;5134494;27;20046;-76
2021/12/06 02:52:11;;;;;;;93.32;33.33;;;3.10;99.90;;;;;;5153602;27;20082;-76
2021/12/06 02:54:38;;;;;;;93.35;33.85;;;3.10;99.90;;;;;;5152914;27;20051;-76
2021/12/06 02:59:37;;;;;;;92.95;35.00;;;3.10;99.90;;;;;;5153051;27;20418;-76
2021/12/06 03:02:06;;;;;;;99.30;35.38;;;3.10;99.90;;;;;;5135804;27;20053;-76
2021/12/06 03:04:33;;;;;;;99.28;37.08;;;3.10;99.90;;;;;;5152694;27;20035;-76
2021/12/06 03:06:59;;;;;;;109.45;39.25;;;3.10;99.90;;;;;;5153570;27;20517;-77
2021/12/06 03:09:29;;;;;;;109.60;36.70;;;3.00;99.90;;;;;;5153228;27;20414;-74
2021/12/06 03:11:58;;;;;;;109.20;38.55;;;3.00;99.90;;;;;;5153760;27;20127;-76
2021/12/06 03:14:36;;;;;;;113.63;40.78;;;3.00;99.90;;;;;;5153355;27;20053;-74
2021/12/06 03:17:05;;;;;;;105.60;39.03;;;3.00;99.90;;;;;;5156521;27;20121;-77
2021/12/06 03:19:32;;;;;;;113.18;38.13;;;3.00;99.90;;;;;;5156609;27;20119;-76
2021/12/06 03:21:57;;;;;;;112.93;37.38;;;3.00;99.90;;;;;;5157108;27;20038;-76
2021/12/06 03:24:23;;;;;;;115.22;35.97;;;3.00;99.90;;;;;;5157042;27;20535;-76
2021/12/06 03:26:50;;;;;;;106.38;37.05;;;3.00;99.90;;;;;;5156962;27;20054;-76
2021/12/06 03:29:17;;;;;;;120.13;38.50;;;2.90;99.90;;;;;;5157208;27;20038;-76
2021/12/06 03:31:42;;;;;;;115.03;38.22;;;3.00;99.90;;;;;;5138712;27;20065;-76
2021/12/06 03:34:09;;;;;;;109.60;36.13;;;3.00;99.90;;;;;;5157016;27;20035;-76
2021/12/06 03:36:36;;;;;;;118.32;38.05;;;3.00;99.90;;;;;;5120868;27;20059;-76
2021/12/06 03:39:06;;;;;;;106.40;37.88;;;3.10;99.90;;;;;;5157005;27;20074;-77
2021/12/06 03:41:32;;;;;;;107.72;36.45;;;3.00;99.90;;;;;;5138432;27;20124;-77
2021/12/06 03:43:58;;;;;;;106.57;36.67;;;3.00;99.90;;;;;;5138428;27;20050;-76
2021/12/06 03:46:25;;;;;;;113.25;38.20;;;3.00;99.90;;;;;;5156877;27;20051;-75
2021/12/06 03:48:52;;;;;;;113.47;37.85;;;3.00;99.90;;;;;;5155842;27;20111;-76
2021/12/06 03:51:17;;;;;;;106.72;36.80;;;3.10;99.90;;;;;;5156534;27;20035;-76
2021/12/06 03:53:44;;;;;;;110.70;34.65;;;3.00;99.90;;;;;;5156136;27;20107;-75
2021/12/06 03:56:10;;;;;;;107.95;38.30;;;3.10;99.90;;;;;;5155599;27;20043;-76
2021/12/06 03:58:36;;;;;;;112.88;39.22;;;3.10;99.90;;;;;;5137749;27;20444;-75
2021/12/06 04:01:04;;;;;;;124.32;42.03;;;3.10;99.90;;;;;;5156234;27;20403;-76
2021/12/06 04:03:31;;;;;;;112.07;38.42;;;3.00;99.90;;;;;;5156665;27;20082;-75
2021/12/06 04:05:57;;;;;;;122.70;38.83;;;3.10;99.90;;;;;;5155500;27;20045;-75
2021/12/06 04:08:25;;;;;;;123.97;39.72;;;3.00;99.90;;;;;;5137939;27;20099;-76
2021/12/06 04:10:50;;;;;;;116.50;39.10;;;3.00;99.90;;;;;;5155766;27;20117;-76
2021/12/06 04:13:16;;;;;;;113.05;38.75;;;3.10;99.90;;;;;;5156787;27;20125;-76
2021/12/06 04:15:44;;;;;;;112.85;38.20;;;3.10;99.90;;;;;;5137268;27;20394;-76
2021/12/06 04:18:10;;;;;;;103.22;38.58;;;3.10;99.90;;;;;;5156618;27;20043;-77
2021/12/06 04:20:37;;;;;;;105.68;38.58;;;3.20;99.90;;;;;;5155571;27;20045;-76
2021/12/06 04:23:05;;;;;;;108.65;38.90;;;3.10;99.90;;;;;;5137928;27;20046;-76
2021/12/06 04:25:32;;;;;;;104.90;38.80;;;3.10;99.90;;;;;;5156054;27;20049;-76
2021/12/06 04:28:03;;;;;;;101.28;39.40;;;3.10;99.90;;;;;;5155415;27;20043;-76
2021/12/06 04:30:30;;;;;;;102.35;37.83;;;3.10;99.90;;;;;;5156047;27;20053;-76
2021/12/06 04:32:56;;;;;;;100.10;37.55;;;3.10;99.90;;;;;;5155663;27;20050;-76
2021/12/06 04:35:23;;;;;;;102.88;38.95;;;3.10;99.90;;;;;;5137480;27;20043;-77
2021/12/06 04:37:49;;;;;;;105.80;39.72;;;3.10;99.90;;;;;;5155148;27;20041;-76
2021/12/06 04:40:15;;;;;;;113.60;42.05;;;3.00;99.90;;;;;;5155525;27;20117;-77
2021/12/06 04:42:42;;;;;;;101.90;38.17;;;3.00;99.90;;;;;;5137263;27;20049;-76
2021/12/06 04:45:08;;;;;;;99.55;38.72;;;3.00;99.90;;;;;;5155662;27;20034;-76
2021/12/06 04:47:35;;;;;;;87.97;35.63;;;3.00;99.90;;;;;;5155918;27;20093;-76
2021/12/06 04:50:01;;;;;;;81.03;33.72;;;3.00;99.90;;;;;;5155026;27;20403;-76
2021/12/06 04:52:27;;;;;;;81.25;33.67;;;3.00;99.90;;;;;;5136823;27;20117;-77
2021/12/06 04:54:57;;;;;;;71.93;31.13;;;3.00;99.90;;;;;;5135252;27;20126;-77
2021/12/06 04:57:28;;;;;;;71.28;31.05;;;3.00;99.90;;;;;;5155448;27;20487;-77
2021/12/06 05:00:19;;;;;;;68.20;30.52;;;2.90;99.90;;;;;;5119639;27;20058;-77
2021/12/06 05:02:45;;;;;;;;;;;3.00;99.90;;;;;;5146303;27;20054;-76
2021/12/06 05:05:18;;;;;;;66.80;28.75;;;3.00;99.90;;;;;;5137251;27;19925;-77
2021/12/06 05:07:53;;;;;;;66.68;30.60;;;3.00;99.90;;;;;;5154684;27;20058;-76
2021/12/06 05:10:19;;;;;;;73.25;33.05;;;3.00;99.90;;;;;;5155206;27;20177;-77
2021/12/06 05:12:47;;;;;;;72.40;30.48;;;2.90;99.90;;;;;;5154498;27;20081;-77
2021/12/06 05:15:13;;;;;;;74.95;31.58;;;2.90;99.90;;;;;;5136579;27;20038;-76
2021/12/06 05:17:40;;;;;;;73.22;30.38;;;2.90;99.90;;;;;;5154730;27;20117;-74
2021/12/06 05:20:07;;;;;;;72.30;29.17;;;2.90;99.90;;;;;;5153807;27;20050;-78
2021/12/06 05:22:33;;;;;;;74.20;32.13;;;2.90;99.90;;;;;;5154811;27;20167;-77
2021/12/06 05:24:59;;;;;;;76.32;32.47;;;2.90;99.90;;;;;;5154650;27;20046;-77
2021/12/06 05:27:29;;;;;;;72.43;31.90;;;2.90;99.90;;;;;;5155208;27;20050;-77
2021/12/06 05:29:59;;;;;;;78.68;33.72;;;2.90;99.90;;;;;;5136292;27;20530;-77
2021/12/06 05:32:27;;;;;;;81.32;33.42;;;2.90;99.90;;;;;;5155408;27;20402;-76
2021/12/06 05:35:02;;;;;;;76.32;34.17;;;3.00;99.90;;;;;;5154043;27;20038;-76
2021/12/06 05:37:27;;;;;;;77.85;33.95;;;2.90;99.90;;;;;;5154797;27;20082;-77
2021/12/06 05:39:54;;;;;;;72.32;32.13;;;3.00;99.90;;;;;;5153552;27;20131;-77
2021/12/06 05:42:20;;;;;;;69.07;31.13;;;2.90;99.90;;;;;;5154991;27;20047;-77
2021/12/06 05:44:46;;;;;;;64.97;29.98;;;3.00;99.90;;;;;;5154277;27;20045;-76
2021/12/06 05:47:12;;;;;;;65.97;28.98;;;2.90;99.90;;;;;;5154499;27;20471;-76
2021/12/06 05:49:38;;;;;;;66.35;29.83;;;2.90;99.90;;;;;;5154900;27;20054;-77
2021/12/06 05:52:04;;;;;;;70.68;30.85;;;2.90;99.90;;;;;;5135082;27;20103;-77
2021/12/06 05:54:30;;;;;;;64.55;29.08;;;2.90;99.90;;;;;;5154120;27;20475;-77
2021/12/06 05:56:56;;;;;;;66.13;29.67;;;2.90;99.90;;;;;;5154133;27;20043;-77
2021/12/06 05:59:22;;;;;;;66.20;30.83;;;2.90;99.90;;;;;;5154602;27;20047;-76
2021/12/06 06:01:50;;;;;;;69.03;30.25;;;2.80;99.90;;;;;;5135585;27;20038;-76
2021/12/06 06:04:16;;;;;;;63.63;29.10;;;2.80;99.90;;;;;;5154747;27;20042;-78
2021/12/06 06:06:42;;;;;;;66.47;30.65;;;2.90;99.90;;;;;;5153694;27;20039;-76
2021/12/06 06:09:08;;;;;;;65.72;29.27;;;2.80;99.90;;;;;;5153892;27;20174;-76
2021/12/06 06:11:35;;;;;;;69.97;30.58;;;2.80;99.90;;;;;;5154432;27;20054;-77
2021/12/06 06:14:05;;;;;;;67.60;30.85;;;2.80;99.90;;;;;;5135414;27;20463;-76
2021/12/06 06:16:36;;;;;;;73.68;32.63;;;2.80;99.90;;;;;;5154370;27;20119;-76
2021/12/06 06:19:04;;;;;;;75.55;30.42;;;2.80;99.90;;;;;;5135665;27;20530;-77
2021/12/06 06:21:30;;;;;;;76.35;32.30;;;2.80;99.90;;;;;;5154252;27;20043;-77
2021/12/06 06:23:56;;;;;;;75.20;32.42;;;2.80;99.90;;;;;;5153392;27;20045;-77
2021/12/06 06:26:22;;;;;;;69.32;31.13;;;2.80;99.90;;;;;;5154226;27;20471;-77
2021/12/06 06:28:48;;;;;;;72.93;33.05;;;2.80;99.90;;;;;;5153945;27;20107;-75
2021/12/06 06:31:14;;;;;;;72.47;32.40;;;2.80;99.90;;;;;;5154073;27;20101;-77
2021/12/06 06:33:39;;;;;;;68.30;31.65;;;2.80;99.90;;;;;;5154099;27;20068;-78
2021/12/06 06:36:05;;;;;;;68.15;31.33;;;2.80;99.90;;;;;;5153279;27;20122;-77
2021/12/06 06:38:31;;;;;;;65.72;31.20;;;2.70;99.90;;;;;;5154163;27;20043;-77
2021/12/06 06:40:58;;;;;;;64.70;29.98;;;2.70;99.90;;;;;;5153364;27;20046;-76
2021/12/06 06:43:24;;;;;;;64.93;28.70;;;2.70;99.90;;;;;;5154092;27;20095;-78
2021/12/06 06:45:50;;;;;;;61.30;29.02;;;2.70;99.90;;;;;;5153441;27;20429;-75
2021/12/06 06:48:16;;;;;;;61.78;29.98;;;2.70;99.90;;;;;;5153889;27;20086;-77
2021/12/06 06:50:41;;;;;;;60.28;28.30;;;2.60;99.90;;;;;;5154261;27;20086;-77
2021/12/06 06:53:08;;;;;;;63.08;29.02;;;2.60;99.90;;;;;;5157619;27;20043;-76
2021/12/06 06:55:33;;;;;;;62.42;29.60;;;2.60;99.90;;;;;;5157862;27;20487;-77
2021/12/06 06:57:59;;;;;;;61.45;29.48;;;2.60;99.90;;;;;;5157531;27;20058;-77
2021/12/06 07:00:33;;;;;;;63.88;30.25;;;2.60;99.90;;;;;;5157772;27;20054;-77
2021/12/06 07:02:58;;;;;;;73.18;33.65;;;2.60;99.90;;;;;;5157023;27;20113;-77
2021/12/06 07:05:26;;;;;;;88.25;40.17;;;2.60;99.90;;;;;;5157976;27;20554;-77
2021/12/06 07:07:52;;;;;;;94.10;40.75;;;2.60;99.90;;;;;;5157389;27;20043;-74
2021/12/06 07:10:18;;;;;;;96.82;43.65;;;2.50;99.90;;;;;;5157688;27;20058;-77
2021/12/06 07:12:47;;;;;;;102.80;45.92;;;2.40;99.90;;;;;;5139245;27;20042;-77
2021/12/06 07:15:16;;;;;;;102.38;45.05;;;2.40;99.90;;;;;;5138677;27;20047;-77
2021/12/06 07:17:43;;;;;;;104.93;44.83;;;2.40;99.90;;;;;;5139244;27;20121;-77
2021/12/06 07:20:11;;;;;;;110.82;44.30;;;2.40;99.90;;;;;;5157071;27;20517;-77
2021/12/06 07:22:37;;;;;;;108.03;44.67;;;2.40;99.90;;;;;;5157858;27;20046;-77
2021/12/06 07:25:04;;;;;;;102.55;45.35;;;2.40;99.90;;;;;;5138485;27;20386;-76
2021/12/06 07:27:30;;;;;;;110.63;44.65;;;2.40;99.90;;;;;;5156897;27;20547;-78
2021/12/06 07:29:56;;;;;;;108.68;44.95;;;2.40;99.90;;;;;;5157084;27;20099;-74
2021/12/06 07:32:22;;;;;;;106.55;43.75;;;2.40;99.90;;;;;;5157207;27;20063;-77
2021/12/06 07:34:50;;;;;;;111.75;46.15;;;2.40;99.90;;;;;;5157336;27;20046;-77
2021/12/06 07:37:15;;;;;;;109.75;46.53;;;2.40;99.90;;;;;;5156787;27;20103;-77
2021/12/06 07:39:41;;;;;;;110.93;44.45;;;2.40;99.90;;;;;;5157129;27;20047;-77
2021/12/06 07:42:11;;;;;;;117.22;44.17;;;2.40;99.90;;;;;;5156615;27;20038;-77
2021/12/06 07:44:38;;;;;;;97.13;39.17;;;2.40;99.90;;;;;;5157217;27;20042;-77
2021/12/06 07:47:04;;;;;;;83.63;36.75;;;2.40;99.90;;;;;;5138378;27;20404;-76
2021/12/06 07:49:29;;;;;;;96.75;40.65;;;2.40;99.90;;;;;;5156822;27;20129;-77
2021/12/06 07:51:55;;;;;;;94.05;39.67;;;2.40;99.90;;;;;;5157022;27;20126;-77
2021/12/06 07:54:21;;;;;;;78.70;35.45;;;2.40;99.90;;;;;;5156067;27;20039;-77
2021/12/06 07:56:47;;;;;;;80.55;35.95;;;2.40;99.90;;;;;;5156088;27;20050;-76
2021/12/06 07:59:13;;;;;;;84.82;37.40;;;2.40;99.90;;;;;;5155949;27;20077;-77
2021/12/06 08:01:39;;;;;;;74.45;31.88;;;2.50;99.90;;;;;;5138639;27;20114;-76
2021/12/06 08:04:06;;;;;;;71.25;33.55;;;2.50;99.90;;;;;;5155344;27;20074;-76
2021/12/06 08:06:32;;;;;;;69.18;32.53;;;2.50;99.90;;;;;;5156845;27;20047;-77
2021/12/06 08:08:58;;;;;;;60.05;27.45;;;2.50;99.90;;;;;;5156143;27;20102;-75
2021/12/06 08:11:25;;;;;;;58.60;25.83;;;2.50;99.90;;;;;;5137451;27;20125;-71
2021/12/06 08:13:56;;;;;;;54.53;26.05;;;2.50;99.90;;;;;;5156577;27;20038;-81
2021/12/06 08:16:28;;;;;;;54.85;25.08;;;2.50;99.90;;;;;;5156158;27;20047;-76
2021/12/06 08:18:54;;;;;;;58.60;26.50;;;2.40;99.90;;;;;;5156321;27;20505;-81
2021/12/06 08:21:22;;;;;;;55.92;25.77;;;2.40;99.90;;;;;;5155559;27;20069;-79
2021/12/06 08:23:49;;;;;;;57.70;25.58;;;2.50;99.90;;;;;;5156740;27;20051;-81
2021/12/06 08:26:17;;;;;;;57.45;25.75;;;2.50;99.90;;;;;;5155860;27;20126;-81
2021/12/06 08:28:43;;;;;;;57.33;26.13;;;2.50;99.90;;;;;;5156497;27;20428;-81
2021/12/06 08:31:10;;;;;;;58.05;26.75;;;2.40;99.90;;;;;;5155296;27;20039;-80
2021/12/06 08:33:38;;;;;;;62.03;27.02;;;2.50;99.90;;;;;;5156243;27;20053;-82
2021/12/06 08:36:06;;;;;;;53.25;25.40;;;2.50;99.90;;;;;;5155786;27;20261;-76
2021/12/06 08:38:33;;;;;;;60.08;26.92;;;2.50;99.90;;;;;;5129805;27;20051;-80
2021/12/06 08:41:00;;;;;;;65.18;28.58;;;2.50;99.90;;;;;;5147538;27;20047;-79
2021/12/06 08:43:26;;;;;;;66.45;28.65;;;2.50;99.90;;;;;;5148105;27;20068;-78
2021/12/06 08:45:58;;;;;;;62.60;26.80;;;2.50;99.90;;;;;;5149838;27;20054;-79
2021/12/06 08:48:29;;;;;;;54.05;26.13;;;2.70;99.90;;;;;;5130932;27;20086;-78
2021/12/06 08:50:57;;;;;;;51.45;25.38;;;2.60;99.90;;;;;;5151070;27;20054;-79
2021/12/06 08:53:23;;;;;;;55.08;23.90;;;2.60;99.90;;;;;;5149701;27;20049;-76
2021/12/06 08:55:49;;;;;;;54.00;25.73;;;2.60;99.90;;;;;;5132163;27;20476;-81
2021/12/06 08:58:15;;;;;;;49.90;24.15;;;2.60;99.90;;;;;;5150272;27;20043;-78
2021/12/06 09:00:41;;;;;;;47.97;22.73;;;2.60;99.90;;;;;;5151197;27;20055;-81
2021/12/06 09:03:07;;;;;;;44.00;22.60;;;2.60;99.90;;;;;;5149982;27;20451;-77
2021/12/06 09:05:40;;;;;;;41.88;20.15;;;2.60;99.90;;;;;;5150180;27;20047;-76
2021/12/06 09:08:06;;;;;;;41.78;21.92;;;2.80;99.90;;;;;;5131743;27;20046;-77
2021/12/06 09:10:32;;;;;;;37.80;19.77;;;2.60;99.90;;;;;;5149385;27;20049;-81
2021/12/06 09:12:58;;;;;;;35.83;19.45;;;2.60;99.90;;;;;;5150753;27;20042;-80
2021/12/06 09:15:25;;;;;;;38.20;19.17;;;2.60;99.90;;;;;;5149007;27;20070;-78
2021/12/06 09:17:53;;;;;;;36.28;19.77;;;2.50;99.90;;;;;;5149714;27;20043;-80
2021/12/06 09:20:23;;;;;;;42.40;20.80;;;2.60;99.90;;;;;;5130006;27;20050;-80
2021/12/06 09:22:50;;;;;;;37.72;19.83;;;2.50;99.90;;;;;;5150482;27;20039;-81
2021/12/06 09:25:16;;;;;;;37.13;20.42;;;2.60;99.90;;;;;;5148360;27;20077;-75
2021/12/06 09:27:43;;;;;;;42.25;21.85;;;2.60;99.90;;;;;;5131831;27;20700;-80
2021/12/06 09:30:13;;;;;;;35.35;18.63;;;2.60;99.90;;;;;;5149784;27;20683;-76
2021/12/06 09:32:40;;;;;;;37.70;19.45;;;2.60;99.90;;;;;;5149973;27;20106;-80
2021/12/06 09:35:09;;;;;;;40.38;20.45;;;2.60;99.90;;;;;;5149821;27;20043;-76
2021/12/06 09:37:37;;;;;;;35.75;19.58;;;2.60;99.90;;;;;;5149554;27;20043;-80
2021/12/06 09:40:04;;;;;;;37.95;20.48;;;2.60;99.90;;;;;;5149351;27;20099;-79
2021/12/06 09:42:33;;;;;;;37.47;20.15;;;2.70;99.90;;;;;;5148988;27;20070;-80
2021/12/06 09:45:00;;;;;;;33.10;19.35;;;2.70;99.90;;;;;;5131596;27;20085;-77
2021/12/06 09:47:28;;;;;;;35.80;19.83;;;2.70;99.90;;;;;;5134253;27;20184;-75
2021/12/06 09:49:54;;;;;;;41.40;20.30;;;2.80;99.90;;;;;;5116347;27;20075;-79
2021/12/06 09:52:21;;;;;;;37.47;19.73;;;2.80;99.90;;;;;;5135619;27;20092;-80
2021/12/06 09:54:47;;;;;;;37.03;18.67;;;2.80;99.90;;;;;;5134772;27;20103;-75
2021/12/06 09:57:13;;;;;;;37.03;19.73;;;2.90;99.90;;;;;;5137052;27;20441;-75
2021/12/06 09:59:41;;;;;;;34.50;19.55;;;2.90;99.90;;;;;;5114779;27;20074;-77
2021/12/06 10:02:17;;;;;;;37.83;20.95;;;2.90;99.90;;;;;;5134904;27;20121;-78
2021/12/06 10:04:48;;;;;;;38.78;21.13;;;3.00;99.90;;;;;;5117482;27;20074;-77
2021/12/06 10:07:15;;;;;;;;;;;2.90;99.90;;;;;;5114860;27;20639;-76
2021/12/06 10:09:43;;;;;;;37.88;21.33;;;2.90;99.90;;;;;;5134593;27;19919;-78
2021/12/06 10:12:11;;;;;;;41.58;22.02;;;3.00;99.90;;;;;;5136830;27;20043;-80
2021/12/06 10:14:37;;;;;;;39.35;22.90;;;3.10;99.90;;;;;;5139842;27;20144;-78
2021/12/06 10:17:06;;;;;;;41.55;22.45;;;3.10;99.90;;;;;;5132335;27;20043;-80
2021/12/06 10:19:33;;;;;;;40.85;22.17;;;3.20;99.90;;;;;;5138470;27;20642;-79
2021/12/06 10:21:59;;;;;;;38.30;21.55;;;3.20;99.90;;;;;;5144427;27;20479;-80
2021/12/06 10:24:29;;;;;;;43.35;22.38;;;3.20;99.90;;;;;;5131008;27;20067;-80
2021/12/06 10:27:09;;;;;;;39.60;21.23;;;3.20;99.90;;;;;;5138923;27;20440;-80
2021/12/06 10:29:44;;;;;;;38.83;21.08;;;3.20;99.90;;;;;;5138525;27;20043;-80
2021/12/06 10:32:39;;;;;;;35.13;19.30;;;3.30;99.90;;;;;;5148525;27;20073;-78
2021/12/06 10:35:13;;;;;;;33.17;19.77;;;3.30;99.90;;;;;;5146306;27;20050;-80
2021/12/06 10:37:51;;;;;;;31.50;17.67;;;3.30;99.90;;;;;;5148804;27;20042;-78
2021/12/06 10:40:27;;;;;;;34.63;19.10;;;3.30;99.90;;;;;;5143295;27;20054;-75
2021/12/06 10:42:54;;;;;;;37.80;17.60;;;3.30;99.90;;;;;;5121674;27;20513;-81
2021/12/06 10:45:25;;;;;;;35.58;18.38;;;3.30;99.90;;;;;;5141399;27;20103;-78
2021/12/06 10:48:12;;;;;;;33.97;18.25;;;3.30;99.90;;;;;;5143129;27;20075;-75
2021/12/06 10:50:55;;;;;;;35.65;17.98;;;3.30;99.90;;;;;;5135810;27;20054;-76
2021/12/06 10:53:45;;;;;;;32.80;18.40;;;3.30;99.90;;;;;;5138168;27;20474;-78
2021/12/06 10:56:24;;;;;;;31.80;18.73;;;3.30;99.90;;;;;;5137439;27;20054;-81
2021/12/06 10:58:53;;;;;;;34.97;19.45;;;3.30;99.90;;;;;;5148510;27;20467;-81
2021/12/06 11:01:30;;;;;;;40.22;21.13;;;3.30;99.90;;;;;;5120289;28;20468;-75
2021/12/06 11:03:57;;;;;;;36.70;19.40;;;3.30;99.90;;;;;;5146567;27;20091;-80
2021/12/06 11:06:27;;;;;;;35.83;19.60;;;3.30;99.90;;;;;;5148384;27;20050;-76
2021/12/06 11:09:04;;;;;;;35.10;19.40;;;3.30;99.90;;;;;;5111299;28;20057;-80
2021/12/06 11:11:38;;;;;;;39.50;20.15;;;3.40;99.90;;;;;;5144683;27;20134;-82
2021/12/06 11:14:11;;;;;;;37.35;18.90;;;3.40;99.90;;;;;;5145137;27;20047;-77
2021/12/06 11:16:43;;;;;;;37.60;19.70;;;3.40;99.90;;;;;;5127278;28;20039;-80
2021/12/06 11:19:18;;;;;;;35.60;19.33;;;3.40;99.90;;;;;;5110525;28;20047;-81
2021/12/06 11:21:52;;;;;;;37.95;20.00;;;3.40;99.90;;;;;;5132613;28;20093;-81
2021/12/06 11:24:28;;;;;;;39.47;19.23;;;3.40;99.90;;;;;;5145312;27;20037;-81
2021/12/06 11:27:05;;;;;;;36.95;19.58;;;3.40;99.90;;;;;;5143604;27;20107;-81
2021/12/06 11:29:34;;;;;;;39.45;20.25;;;3.40;99.90;;;;;;5132911;28;20043;-80
2021/12/06 11:32:31;;;;;;;37.33;18.95;;;3.50;99.90;;;;;;5114944;28;20047;-81
2021/12/06 11:35:15;;;;;;;37.65;18.90;;;3.50;99.90;;;;;;5114967;28;20051;-81
2021/12/06 11:37:45;;;;;;;36.78;18.75;;;3.60;99.90;;;;;;5132543;27;20051;-80
2021/12/06 11:40:27;;;;;;;37.08;20.15;;;3.70;99.90;;;;;;5121933;27;20471;-80
2021/12/06 11:43:03;;;;;;;37.20;19.67;;;3.80;99.90;;;;;;5157374;27;20046;-81
2021/12/06 11:45:46;;;;;;;33.10;16.55;;;3.80;99.90;;;;;;5156685;27;20047;-80
2021/12/06 11:48:15;;;;;;;30.45;17.55;;;3.90;99.90;;;;;;5157150;27;20134;-81
2021/12/06 11:50:50;;;;;;;33.28;17.23;;;3.90;99.90;;;;;;5138077;27;20547;-81
2021/12/06 11:53:22;;;;;;;31.25;17.38;;;3.90;99.90;;;;;;5157134;27;20039;-81
2021/12/06 11:55:55;;;;;;;36.15;18.80;;;4.00;99.90;;;;;;5156042;27;20135;-80
2021/12/06 11:58:40;;;;;;;36.17;18.77;;;4.00;99.90;;;;;;5157415;27;20050;-81
2021/12/06 12:01:16;;;;;;;34.58;18.90;;;4.00;99.90;;;;;;5157290;27;20042;-80
2021/12/06 12:03:50;;;;;;;35.90;19.65;;;4.00;99.90;;;;;;5156808;27;20046;-81
2021/12/06 12:06:33;;;;;;;34.00;19.25;;;4.00;99.90;;;;;;5157289;27;20082;-80
2021/12/06 12:09:31;;;;;;;38.95;22.80;;;4.10;99.90;;;;;;5139173;27;20178;-80
2021/12/06 12:12:23;;;;;;;39.88;22.90;;;4.10;99.90;;;;;;5138325;27;20050;-81
2021/12/06 12:14:50;;;;;;;41.33;21.80;;;4.20;99.90;;;;;;5155137;27;20101;-78
2021/12/06 12:17:18;;;;;;;42.58;21.77;;;4.20;99.90;;;;;;5145707;27;20482;-80
2021/12/06 12:19:47;;;;;;;42.58;22.63;;;4.20;99.90;;;;;;5142181;27;20082;-80
2021/12/06 12:22:14;;;;;;;45.47;24.90;;;4.20;99.90;;;;;;5125510;27;20526;-82
2021/12/06 12:24:44;;;;;;;43.65;24.63;;;4.10;99.90;;;;;;5135290;27;20043;-81
2021/12/06 12:27:26;;;;;;;48.30;26.05;;;4.10;99.90;;;;;;5135970;27;20075;-80
2021/12/06 12:29:55;;;;;;;43.83;23.63;;;4.10;99.90;;;;;;5117446;27;20476;-81
2021/12/06 12:32:22;;;;;;;47.65;25.80;;;4.10;99.90;;;;;;5143487;27;20050;-81
2021/12/06 12:34:51;;;;;;;52.50;29.08;;;4.10;99.90;;;;;;5134677;27;20047;-80
2021/12/06 12:37:20;;;;;;;52.65;30.08;;;4.10;99.90;;;;;;5135269;27;20124;-80
2021/12/06 12:40:05;;;;;;;53.28;30.17;;;4.10;99.90;;;;;;5134740;27;20054;-81
2021/12/06 12:42:31;;;;;;;54.25;30.67;;;4.10;99.90;;;;;;5134320;27;20043;-75
2021/12/06 12:44:59;;;;;;;56.95;30.23;;;4.10;99.90;;;;;;5139086;27;20095;-80
2021/12/06 12:47:31;;;;;;;54.15;32.10;;;4.20;99.90;;;;;;5148106;27;20096;-81
2021/12/06 12:50:00;;;;;;;59.67;31.77;;;4.20;99.90;;;;;;5134978;27;20094;-81
2021/12/06 12:52:46;;;;;;;58.75;32.90;;;4.20;99.90;;;;;;5150161;27;20502;-81
2021/12/06 12:55:28;;;;;;;53.30;30.55;;;4.20;99.90;;;;;;5135969;27;20047;-78
2021/12/06 12:58:13;;;;;;;54.00;30.75;;;4.30;99.90;;;;;;5119392;27;20269;-81
2021/12/06 13:00:56;;;;;;;47.35;27.63;;;4.20;99.90;;;;;;5145988;27;20039;-80